TimeMDT,TemperatureF,Dew PointF,Humidity,Sea Level PressureIn,VisibilityMPH,Wind Direction,Wind SpeedMPH,Gust SpeedMPH,PrecipitationIn,Events,Conditions,WindDirDegrees,DateUTC
12:56 AM,57.0,53.1,87,30.20,10.0,ESE,8.1,-,N/A,,Scattered Clouds,110,2013-07-01 06:56:00
1:56 AM,55.9,53.1,90,30.21,10.0,ESE,6.9,-,N/A,,Clear,120,2013-07-01 07:56:00
2:56 AM,57.9,53.1,84,30.20,10.0,SE,8.1,-,N/A,,Mostly Cloudy,140,2013-07-01 08:56:00
3:56 AM,55.9,52.0,87,30.20,10.0,SSE,8.1,-,N/A,,Clear,150,2013-07-01 09:56:00
4:56 AM,55.0,51.1,86,30.22,10.0,SE,6.9,-,N/A,,Clear,140,2013-07-01 10:56:00
5:56 AM,55.9,53.1,90,30.23,10.0,SSE,6.9,-,N/A,,Clear,160,2013-07-01 11:56:00
6:56 AM,62.1,55.9,80,30.23,10.0,South,5.8,-,N/A,,Scattered Clouds,170,2013-07-01 12:56:00
7:56 AM,68.0,57.0,68,30.23,10.0,South,10.4,-,N/A,,Clear,170,2013-07-01 13:56:00
8:56 AM,71.1,55.9,59,30.24,10.0,South,10.4,-,N/A,,Clear,170,2013-07-01 14:56:00
9:56 AM,73.9,57.0,55,30.23,10.0,South,11.5,18.4,N/A,,Clear,180,2013-07-01 15:56:00
10:56 AM,75.9,55.0,48,30.23,10.0,SSE,11.5,18.4,N/A,,Clear,160,2013-07-01 16:56:00
11:56 AM,77.0,54.0,45,30.22,10.0,South,12.7,-,N/A,,Clear,170,2013-07-01 17:56:00
12:56 PM,78.1,54.0,43,30.21,10.0,SSE,12.7,-,N/A,,Clear,150,2013-07-01 18:56:00
1:56 PM,79.0,54.0,42,30.20,10.0,SE,10.4,-,N/A,,Clear,140,2013-07-01 19:56:00
2:56 PM,79.0,53.1,40,30.19,10.0,SE,11.5,19.6,N/A,,Clear,130,2013-07-01 20:56:00
3:56 PM,78.1,51.1,39,30.20,10.0,South,10.4,-,N/A,,Clear,170,2013-07-01 21:56:00
4:56 PM,78.1,52.0,40,30.19,10.0,Variable,5.8,-,N/A,,Unknown,0,2013-07-01 22:56:00
5:56 PM,77.0,54.0,45,30.18,10.0,SE,11.5,-,N/A,,Clear,140,2013-07-01 23:56:00
6:56 PM,75.0,55.9,51,30.17,10.0,SE,5.8,-,N/A,,Clear,140,2013-07-02 00:56:00
7:56 PM,70.0,55.0,59,30.17,10.0,ESE,8.1,-,N/A,,Clear,120,2013-07-02 01:56:00
8:56 PM,64.0,54.0,70,30.16,10.0,ESE,5.8,-,N/A,,Clear,110,2013-07-02 02:56:00
9:56 PM,61.0,52.0,72,30.17,10.0,ESE,6.9,-,N/A,,Clear,120,2013-07-02 03:56:00
10:56 PM,60.1,51.1,72,30.17,10.0,SE,6.9,-,N/A,,Clear,130,2013-07-02 04:56:00
11:56 PM,57.0,50.0,77,30.18,10.0,SSE,8.1,-,N/A,,Partly Cloudy,150,2013-07-02 05:56:00